createdAt,value
2018-04-14T00:02:01.889Z,73.82
2018-04-14T00:04:31.161Z,73.43
2018-04-14T00:07:00.453Z,72.32
2018-04-14T00:09:29.838Z,76.30
2018-04-14T00:11:59.142Z,72.55
2018-04-14T00:14:28.469Z,74.22
2018-04-14T00:16:57.849Z,72.03
2018-04-14T00:19:27.040Z,73.85
2018-04-14T00:21:56.233Z,70.93
2018-04-14T00:24:25.535Z,72.65
2018-04-14T00:26:54.730Z,71.20
2018-04-14T00:29:24.046Z,72.25
2018-04-14T00:31:53.441Z,70.35
2018-04-14T00:34:22.634Z,71.60
2018-04-14T00:36:51.935Z,69.30
2018-04-14T00:39:21.241Z,73.62
2018-04-14T00:41:50.395Z,71.43
2018-04-14T00:44:19.778Z,71.78
2018-04-14T00:46:49.180Z,69.80
2018-04-14T00:49:18.448Z,72.03
2018-04-14T00:51:47.850Z,71.78
2018-04-14T00:54:17.152Z,70.57
2018-04-14T00:56:46.590Z,70.35
2018-04-14T00:59:15.957Z,69.57
2018-04-14T01:01:45.298Z,69.53
2018-04-14T01:04:39.865Z,71.03
2018-04-14T01:07:09.063Z,68.70
2018-04-14T01:09:38.281Z,71.20
2018-04-14T01:12:07.468Z,69.05
2018-04-14T01:17:28.030Z,72.72
2018-04-14T01:19:57.267Z,70.85
2018-04-14T01:22:26.485Z,71.37
2018-04-14T01:24:55.828Z,69.47
2018-04-14T01:27:25.068Z,72.37
2018-04-14T01:29:54.266Z,70.55
2018-04-14T01:32:23.633Z,72.80
2018-04-14T01:34:53.037Z,67.95
2018-04-14T01:37:22.444Z,69.93
2018-04-14T01:39:51.782Z,69.43
2018-04-14T01:42:21.134Z,73.18
2018-04-14T01:44:50.434Z,70.45
2018-04-14T01:47:19.707Z,69.75
2018-04-14T01:49:48.932Z,70.43
2018-04-14T01:52:18.185Z,69.65
2018-04-14T01:54:47.423Z,70.05
2018-04-14T01:57:16.618Z,68.57
2018-04-14T01:59:45.778Z,70.37
2018-04-14T02:02:15.032Z,70.03
2018-04-14T02:04:44.313Z,70.10
2018-04-14T02:07:13.529Z,70.60
2018-04-14T02:09:42.712Z,68.05
2018-04-14T02:12:11.999Z,69.90
2018-04-14T02:14:41.309Z,67.35
2018-04-14T02:17:10.655Z,69.68
2018-04-14T02:19:39.895Z,67.43
2018-04-14T02:22:09.111Z,68.62
2018-04-14T02:24:38.270Z,68.97
2018-04-14T02:27:07.608Z,69.37
2018-04-14T02:29:37.011Z,69.70
2018-04-14T02:32:06.409Z,68.45
2018-04-14T02:34:35.713Z,69.78
2018-04-14T02:37:04.975Z,68.65
2018-04-14T02:39:34.417Z,70.47
2018-04-14T02:42:03.794Z,68.45
2018-04-14T02:44:33.133Z,70.53
2018-04-14T02:47:02.514Z,69.62
2018-04-14T02:49:32.037Z,70.45
2018-04-14T02:52:01.373Z,69.82
2018-04-14T02:54:30.752Z,70.03
2018-04-14T02:57:00.086Z,68.22
2018-04-14T02:59:29.462Z,71.03
2018-04-14T03:01:58.672Z,68.05
2018-04-14T03:04:28.021Z,70.32
2018-04-14T03:06:57.312Z,68.82
2018-04-14T03:09:26.577Z,69.17
2018-04-14T03:11:55.758Z,68.65
2018-04-14T03:14:25.013Z,69.80
2018-04-14T03:16:54.256Z,69.32
2018-04-14T03:19:23.620Z,70.62
2018-04-14T03:21:52.919Z,69.12
2018-04-14T03:24:22.146Z,69.90
2018-04-14T03:26:51.372Z,69.22
2018-04-14T03:29:20.717Z,71.97
2018-04-14T03:31:50.002Z,69.20
2018-04-14T03:34:19.304Z,67.85
2018-04-14T03:36:48.603Z,70.40
2018-04-14T03:39:17.775Z,69.72
2018-04-14T03:41:47.069Z,69.32
2018-04-14T03:44:16.350Z,68.70
2018-04-14T03:46:45.603Z,68.60
2018-04-14T03:49:14.806Z,67.78
2018-04-14T03:51:44.104Z,69.28
2018-04-14T03:54:13.272Z,69.80
2018-04-14T03:56:42.461Z,68.75
2018-04-14T03:59:11.702Z,68.53
2018-04-14T04:01:41.003Z,69.72
2018-04-14T04:04:10.308Z,69.23
2018-04-14T04:06:39.709Z,68.45
2018-04-14T04:09:09.025Z,69.43
2018-04-14T04:11:38.416Z,69.60
2018-04-14T04:14:07.821Z,68.53
2018-04-14T04:16:37.106Z,69.50
2018-04-14T04:19:12.361Z,71.47
2018-04-14T04:21:47.604Z,72.60
2018-04-14T04:24:22.831Z,69.80
2018-04-14T04:26:52.096Z,69.12
2018-04-14T04:29:21.704Z,70.37
2018-04-14T04:31:51.045Z,71.18
2018-04-14T04:34:20.427Z,72.55
2018-04-14T04:36:49.823Z,68.87
2018-04-14T04:39:19.133Z,71.60
2018-04-14T04:41:50.283Z,71.75
2018-04-14T04:44:19.715Z,79.75
2018-04-14T04:46:49.079Z,73.80
2018-04-14T04:49:18.365Z,74.80
2018-04-14T04:51:47.672Z,75.50
2018-04-14T04:54:17.172Z,75.18
2018-04-14T04:56:46.596Z,73.78
2018-04-14T04:59:15.976Z,73.78
2018-04-14T05:01:45.129Z,72.93
2018-04-14T05:04:14.289Z,74.50
2018-04-14T05:06:43.571Z,74.12
2018-04-14T05:09:12.850Z,80.65
2018-04-14T05:11:42.073Z,76.45
2018-04-14T05:14:11.273Z,75.55
2018-04-14T05:16:40.570Z,75.30
2018-04-14T05:19:09.974Z,77.40
2018-04-14T05:21:39.159Z,78.40
2018-04-14T05:24:08.522Z,82.95
2018-04-14T05:26:37.759Z,82.85
2018-04-14T05:29:07.177Z,82.70
2018-04-14T05:31:36.293Z,84.25
2018-04-14T05:34:05.678Z,81.47
2018-04-14T05:36:34.980Z,89.78
2018-04-14T05:39:04.356Z,89.25
2018-04-14T05:41:34.054Z,88.55
2018-04-14T05:44:03.284Z,87.47
2018-04-14T05:46:32.499Z,90.32
2018-04-14T05:49:01.863Z,91.15
2018-04-14T05:51:31.160Z,92.35
2018-04-14T05:54:00.459Z,90.10
2018-04-14T05:56:29.863Z,92.03
2018-04-14T05:58:59.266Z,86.25
2018-04-14T06:01:28.773Z,87.70
2018-04-14T06:03:58.172Z,83.93
2018-04-14T06:06:27.577Z,88.40
2018-04-14T06:08:56.902Z,82.35
2018-04-14T06:11:26.109Z,83.57
2018-04-14T06:13:55.409Z,85.35
2018-04-14T06:16:24.691Z,86.60
2018-04-14T06:18:53.979Z,85.10
2018-04-14T06:21:23.186Z,85.35
2018-04-14T06:23:52.576Z,82.22
2018-04-14T06:26:22.087Z,84.47
2018-04-14T06:28:51.688Z,79.45
2018-04-14T06:31:20.992Z,82.97
2018-04-14T06:33:50.408Z,82.55
2018-04-14T06:36:19.742Z,81.57
2018-04-14T06:38:49.322Z,83.62
2018-04-14T06:41:18.592Z,84.50
2018-04-14T06:43:47.913Z,78.43
2018-04-14T06:46:17.398Z,79.90
2018-04-14T06:48:46.733Z,77.37
2018-04-14T06:51:16.188Z,80.35
2018-04-14T06:53:45.627Z,79.28
2018-04-14T06:56:14.857Z,77.95
2018-04-14T06:58:45.023Z,80.75
2018-04-14T07:01:14.290Z,78.10
2018-04-14T07:03:43.978Z,77.37
2018-04-14T07:06:14.072Z,79.22
2018-04-14T07:08:43.566Z,78.37
2018-04-14T07:11:12.906Z,75.28
2018-04-14T07:13:42.224Z,75.68
2018-04-14T07:16:11.695Z,74.85
2018-04-14T07:18:41.128Z,73.95
2018-04-14T07:21:10.469Z,73.00
2018-04-14T07:23:39.855Z,78.10
2018-04-14T07:26:09.114Z,76.55
2018-04-14T07:28:38.397Z,75.65
2018-04-14T07:31:07.710Z,75.60
2018-04-14T07:33:36.952Z,71.70
2018-04-14T07:36:06.155Z,71.55
2018-04-14T07:38:35.384Z,72.55
2018-04-14T07:41:04.625Z,73.20
2018-04-14T07:43:34.000Z,72.70
2018-04-14T07:46:03.331Z,74.28
2018-04-14T07:48:32.723Z,75.80
2018-04-14T07:51:02.058Z,73.75
2018-04-14T07:53:31.224Z,72.53
2018-04-14T07:56:00.662Z,70.78
2018-04-14T07:58:29.919Z,72.12
2018-04-14T08:00:59.134Z,69.10
2018-04-14T08:03:28.448Z,71.10
2018-04-14T08:05:57.770Z,71.03
2018-04-14T08:08:26.991Z,73.22
2018-04-14T08:10:56.206Z,73.70
2018-04-14T08:13:25.420Z,73.87
2018-04-14T08:15:54.610Z,71.53
2018-04-14T08:18:23.989Z,75.85
2018-04-14T08:20:53.347Z,70.55
2018-04-14T08:23:22.577Z,72.75
2018-04-14T08:25:51.937Z,71.80
2018-04-14T08:28:21.282Z,72.40
2018-04-14T08:30:50.682Z,70.32
2018-04-14T08:33:19.915Z,72.57
2018-04-14T08:35:49.454Z,69.72
2018-04-14T08:38:18.707Z,71.35
2018-04-14T08:40:47.901Z,72.53
2018-04-14T08:43:17.263Z,71.35
2018-04-14T08:45:46.485Z,68.00
2018-04-14T08:48:15.661Z,70.15
2018-04-14T08:50:44.936Z,71.55
2018-04-14T08:53:14.139Z,68.70
2018-04-14T08:55:43.375Z,70.93
2018-04-14T08:58:12.643Z,68.43
2018-04-14T09:00:41.863Z,71.45
2018-04-14T09:03:11.148Z,72.45
2018-04-14T09:05:40.454Z,71.00
2018-04-14T09:08:09.859Z,70.37
2018-04-14T09:10:39.090Z,69.07
2018-04-14T09:13:08.333Z,70.60
2018-04-14T09:15:37.577Z,68.47
2018-04-14T09:18:06.851Z,70.15
2018-04-14T09:20:36.159Z,69.37
2018-04-14T09:23:05.435Z,69.78
2018-04-14T09:25:34.623Z,71.03
2018-04-14T09:28:03.862Z,69.25
2018-04-14T09:30:33.138Z,70.80
2018-04-14T09:33:02.435Z,68.70
2018-04-14T09:35:31.763Z,68.43
2018-04-14T09:38:01.098Z,67.60
2018-04-14T09:40:30.370Z,71.93
2018-04-14T09:42:59.670Z,69.45
2018-04-14T09:45:29.837Z,71.80
2018-04-14T09:47:59.036Z,68.70
2018-04-14T09:50:28.238Z,69.62
2018-04-14T09:52:57.470Z,68.40
2018-04-14T09:55:26.682Z,71.35
2018-04-14T09:57:56.035Z,69.22
2018-04-14T10:00:27.177Z,69.62
2018-04-14T10:03:00.598Z,67.97
2018-04-14T10:05:29.870Z,69.57
2018-04-14T10:07:59.267Z,69.85
2018-04-14T10:10:28.591Z,71.62
2018-04-14T10:12:57.770Z,70.12
2018-04-14T10:15:26.978Z,71.85
2018-04-14T10:17:56.249Z,69.05
2018-04-14T10:20:25.403Z,70.00
2018-04-14T10:22:54.655Z,69.15
2018-04-14T10:25:23.890Z,70.07
2018-04-14T10:27:53.269Z,69.47
2018-04-14T10:30:22.554Z,69.90
2018-04-14T10:32:51.961Z,69.93
2018-04-14T10:35:21.143Z,71.80
2018-04-14T10:37:50.408Z,68.40
2018-04-14T10:40:19.771Z,68.25
2018-04-14T10:42:49.054Z,70.30
2018-04-14T10:45:18.291Z,67.40
2018-04-14T10:47:47.600Z,70.32
2018-04-14T10:50:16.799Z,70.65
2018-04-14T10:52:45.925Z,67.87
2018-04-14T10:55:15.312Z,67.18
2018-04-14T10:57:44.564Z,71.28
2018-04-14T11:00:13.867Z,70.60
2018-04-14T11:02:43.202Z,69.50
2018-04-14T11:05:12.550Z,68.15
2018-04-14T11:07:41.860Z,67.20
2018-04-14T11:10:11.160Z,67.55
2018-04-14T11:12:40.306Z,69.37
2018-04-14T11:15:09.487Z,67.95
2018-04-14T11:17:38.668Z,72.95
2018-04-14T11:20:08.007Z,72.28
2018-04-14T11:22:37.166Z,69.33
2018-04-14T11:25:06.407Z,66.00
2018-04-14T11:27:35.622Z,67.15
2018-04-14T11:30:04.777Z,64.78
2018-04-14T11:32:33.918Z,63.22
2018-04-14T11:35:03.055Z,63.10
2018-04-14T11:37:32.176Z,67.85
2018-04-14T11:40:01.480Z,68.20
2018-04-14T11:42:30.656Z,66.65
2018-04-14T11:44:59.956Z,65.75
2018-04-14T11:47:29.100Z,68.85
2018-04-14T11:49:58.271Z,68.37
2018-04-14T11:52:27.408Z,70.18
2018-04-14T11:54:56.540Z,70.62
2018-04-14T11:57:25.687Z,72.32
2018-04-14T11:59:54.876Z,71.30
2018-04-14T12:02:24.091Z,71.00
2018-04-14T12:04:53.410Z,70.43
2018-04-14T12:07:22.852Z,70.20
2018-04-14T12:09:52.098Z,69.40
2018-04-14T12:12:21.501Z,71.53
2018-04-14T12:14:50.687Z,69.95
2018-04-14T12:17:19.795Z,72.70
2018-04-14T12:19:48.993Z,74.30
2018-04-14T12:22:18.358Z,72.70
2018-04-14T12:24:47.525Z,71.03
2018-04-14T12:27:17.617Z,72.12
2018-04-14T12:29:47.679Z,72.43
2018-04-14T12:32:17.413Z,70.32
2018-04-14T12:34:46.642Z,70.72
2018-04-14T12:37:15.947Z,71.53
2018-04-14T12:39:45.177Z,68.62
2018-04-14T12:42:14.511Z,68.78
2018-04-14T12:44:43.751Z,70.78
2018-04-14T12:47:13.011Z,68.68
2018-04-14T12:49:42.241Z,70.53
2018-04-14T12:52:11.537Z,71.35
2018-04-14T12:54:40.814Z,74.25
2018-04-14T12:57:10.256Z,72.57
2018-04-14T12:59:39.619Z,70.50
2018-04-14T13:02:09.025Z,69.00
2018-04-14T13:04:38.365Z,75.00
2018-04-14T13:07:07.747Z,70.85
2018-04-14T13:09:37.231Z,72.65
2018-04-14T13:12:06.566Z,70.68
2018-04-14T13:14:35.867Z,71.57
2018-04-14T13:17:05.269Z,68.93
2018-04-14T13:19:34.552Z,72.62
2018-04-14T13:22:03.929Z,69.10
2018-04-14T13:24:33.253Z,71.95
2018-04-14T13:27:02.534Z,70.82
2018-04-14T13:29:31.873Z,70.60
2018-04-14T13:32:01.199Z,70.70
2018-04-14T13:34:30.391Z,75.40
2018-04-14T13:36:59.633Z,68.68
2018-04-14T13:39:28.851Z,71.78
2018-04-14T13:41:58.119Z,70.18
2018-04-14T13:44:27.345Z,73.37
2018-04-14T13:46:56.566Z,72.32
2018-04-14T13:49:25.733Z,71.00
2018-04-14T13:51:54.920Z,71.72
2018-04-14T13:54:24.118Z,72.70
2018-04-14T13:56:53.299Z,72.62
2018-04-14T13:59:22.495Z,74.35
2018-04-14T14:01:51.691Z,72.75
2018-04-14T14:04:20.868Z,72.32
2018-04-14T14:06:50.192Z,72.78
2018-04-14T14:09:19.394Z,75.37
2018-04-14T14:11:48.638Z,71.72
2018-04-14T14:14:17.887Z,70.37
2018-04-14T14:16:47.102Z,69.62
2018-04-14T14:19:16.365Z,71.50
2018-04-14T14:21:45.585Z,73.07
2018-04-14T14:24:14.779Z,71.05
2018-04-14T14:26:44.057Z,71.32
2018-04-14T14:29:13.246Z,72.37
2018-04-14T14:31:42.469Z,72.45
2018-04-14T14:34:11.767Z,72.55
2018-04-14T14:36:41.341Z,70.00
2018-04-14T14:39:10.538Z,72.62
2018-04-14T14:41:39.930Z,71.32
2018-04-14T14:44:09.172Z,71.07
2018-04-14T14:46:38.403Z,73.05
2018-04-14T14:49:07.939Z,71.68
2018-04-14T14:51:37.187Z,77.15
2018-04-14T14:54:06.494Z,73.15
2018-04-14T14:56:36.510Z,74.57
2018-04-14T14:59:05.729Z,72.45
2018-04-14T15:01:35.002Z,72.28
2018-04-14T15:04:04.989Z,72.50
2018-04-14T15:06:34.207Z,71.50
2018-04-14T15:09:03.608Z,71.35
2018-04-14T15:11:37.861Z,73.65
2018-04-14T15:14:07.125Z,72.32
2018-04-14T15:16:36.414Z,70.68
2018-04-14T15:19:05.591Z,68.87
2018-04-14T15:21:34.983Z,72.87
2018-04-14T15:24:04.213Z,71.70
2018-04-14T15:26:33.411Z,71.97
2018-04-14T15:29:02.618Z,72.40
2018-04-14T15:31:31.841Z,72.28
2018-04-14T15:34:01.148Z,70.40
2018-04-14T15:36:30.406Z,73.32
2018-04-14T15:38:59.635Z,72.05
2018-04-14T15:41:28.793Z,72.37
2018-04-14T15:43:57.991Z,71.50
2018-04-14T15:46:27.214Z,70.72
2018-04-14T15:48:57.004Z,70.93
2018-04-14T15:51:26.323Z,71.43
2018-04-14T15:53:55.538Z,69.20
2018-04-14T15:56:24.739Z,69.82
2018-04-14T15:58:54.033Z,71.03
2018-04-14T16:01:23.396Z,74.55
2018-04-14T16:03:52.695Z,69.97
2018-04-14T16:06:21.939Z,71.62
2018-04-14T16:08:51.240Z,69.62
2018-04-14T16:11:20.430Z,68.78
2018-04-14T16:13:49.633Z,69.60
2018-04-14T16:16:18.942Z,71.40
2018-04-14T16:18:48.338Z,70.90
2018-04-14T16:21:17.602Z,69.68
2018-04-14T16:23:47.726Z,70.62
2018-04-14T16:26:16.943Z,70.00
2018-04-14T16:28:46.139Z,69.57
2018-04-14T16:31:15.426Z,68.93
2018-04-14T16:33:44.651Z,73.00
2018-04-14T16:36:13.879Z,68.78
2018-04-14T16:38:43.055Z,71.60
2018-04-14T16:41:12.523Z,69.55
2018-04-14T16:43:41.848Z,69.93
2018-04-14T16:46:11.022Z,70.25
2018-04-14T16:48:40.243Z,70.30
2018-04-14T16:51:09.536Z,67.90
2018-04-14T16:53:38.791Z,70.10
2018-04-14T16:56:08.027Z,68.12
2018-04-14T16:58:37.322Z,70.35
2018-04-14T17:01:06.644Z,70.22
2018-04-14T17:03:35.816Z,69.70
2018-04-14T17:06:05.096Z,67.85
2018-04-14T17:08:34.332Z,71.03
2018-04-14T17:11:03.607Z,67.72
2018-04-14T17:13:32.878Z,69.75
2018-04-14T17:16:02.183Z,71.93
2018-04-14T17:18:31.373Z,75.93
2018-04-14T17:21:00.627Z,66.50
2018-04-14T17:23:29.816Z,68.50
2018-04-14T17:25:59.065Z,69.32
2018-04-14T17:28:28.256Z,69.78
2018-04-14T17:30:57.431Z,70.07
2018-04-14T17:33:26.873Z,71.62
2018-04-14T17:35:56.034Z,70.43
2018-04-14T17:38:25.206Z,73.45
2018-04-14T17:40:54.394Z,72.37
2018-04-14T17:43:23.583Z,72.82
2018-04-14T17:45:52.777Z,71.35
2018-04-14T17:48:21.981Z,72.30
2018-04-14T17:50:51.145Z,69.25
2018-04-14T17:53:20.325Z,70.78
2018-04-14T17:55:49.519Z,70.53
2018-04-14T17:58:18.809Z,68.43
2018-04-14T18:00:48.111Z,70.72
2018-04-14T18:03:17.342Z,72.18
2018-04-14T18:05:46.540Z,68.62
2018-04-14T18:08:15.741Z,68.87
2018-04-14T18:10:44.943Z,69.62
2018-04-14T18:13:14.132Z,68.90
2018-04-14T18:15:43.311Z,71.00
2018-04-14T18:18:12.562Z,71.03
2018-04-14T18:20:41.826Z,70.00
2018-04-14T18:23:11.028Z,70.95
2018-04-14T18:25:41.206Z,74.97
2018-04-14T18:28:10.438Z,69.00
2018-04-14T18:30:39.661Z,71.60
2018-04-14T18:33:08.865Z,76.28
2018-04-14T18:35:38.122Z,72.25
2018-04-14T18:38:07.344Z,72.93
2018-04-14T18:40:36.627Z,72.55
2018-04-14T18:43:05.851Z,71.82
2018-04-14T18:45:35.175Z,72.87
2018-04-14T18:48:04.448Z,77.00
2018-04-14T18:50:33.653Z,72.60
2018-04-14T18:53:02.836Z,77.35
2018-04-14T18:55:32.021Z,79.47
2018-04-14T18:58:01.234Z,70.62
2018-04-14T19:00:30.442Z,71.28
2018-04-14T19:02:59.622Z,70.18
2018-04-14T19:05:29.501Z,74.45
2018-04-14T19:07:58.677Z,70.70
2018-04-14T19:10:27.949Z,73.00
2018-04-14T19:12:57.194Z,70.00
2018-04-14T19:15:26.367Z,71.18
2018-04-14T19:17:55.545Z,69.70
2018-04-14T19:20:24.850Z,71.00
2018-04-14T19:22:54.035Z,68.68
2018-04-14T19:25:23.205Z,73.93
2018-04-14T19:27:52.408Z,70.43
2018-04-14T19:30:21.701Z,69.43
2018-04-14T19:32:51.008Z,71.75
2018-04-14T19:35:20.299Z,69.75
2018-04-14T19:37:49.812Z,71.30
2018-04-14T19:40:19.107Z,70.82
2018-04-14T19:42:48.280Z,72.45
2018-04-14T19:45:17.459Z,70.28
2018-04-14T19:47:46.811Z,72.53
2018-04-14T19:50:16.098Z,71.37
2018-04-14T19:52:45.340Z,71.75
2018-04-14T19:55:14.567Z,70.62
2018-04-14T19:57:43.794Z,70.68
2018-04-14T20:00:13.043Z,69.45
2018-04-14T20:02:42.294Z,75.43
2018-04-14T20:05:11.506Z,89.82
2018-04-14T20:07:40.705Z,81.80
2018-04-14T20:10:09.899Z,79.20
2018-04-14T20:12:39.101Z,80.57
2018-04-14T20:15:08.280Z,74.00
2018-04-14T20:17:37.471Z,72.03
2018-04-14T20:20:06.669Z,71.22
2018-04-14T20:22:35.877Z,71.37
2018-04-14T20:25:05.066Z,69.62
2018-04-14T20:27:34.452Z,69.75
2018-04-14T20:30:03.698Z,71.25
2018-04-14T20:32:32.892Z,71.05
2018-04-14T20:35:02.085Z,69.93
2018-04-14T20:37:31.255Z,75.90
2018-04-14T20:40:00.449Z,67.95
2018-04-14T20:42:29.647Z,76.25
2018-04-14T20:44:58.849Z,72.18
2018-04-14T20:47:28.063Z,73.95
2018-04-14T20:49:57.241Z,70.68
2018-04-14T20:52:26.680Z,72.35
2018-04-14T20:54:55.874Z,67.85
2018-04-14T20:57:25.057Z,73.10
2018-04-14T20:59:54.253Z,67.97
2018-04-14T21:02:23.474Z,70.55
2018-04-14T21:04:52.659Z,70.93
2018-04-14T21:07:21.895Z,68.87
2018-04-14T21:09:51.052Z,67.72
2018-04-14T21:12:20.338Z,71.47
2018-04-14T21:14:49.503Z,74.03
2018-04-14T21:17:18.718Z,73.35
2018-04-14T21:19:47.874Z,74.18
2018-04-14T21:22:17.141Z,74.47
2018-04-14T21:24:46.410Z,73.55
2018-04-14T21:27:15.577Z,75.85
2018-04-14T21:29:44.806Z,72.25
2018-04-14T21:32:13.973Z,72.60
2018-04-14T21:34:43.202Z,70.22
2018-04-14T21:37:12.454Z,74.95
2018-04-14T21:39:41.642Z,76.87
2018-04-14T21:42:10.818Z,81.22
2018-04-14T21:44:40.021Z,73.60
2018-04-14T21:47:09.247Z,69.20
2018-04-14T21:49:38.472Z,75.75
2018-04-14T21:52:07.666Z,70.87
2018-04-14T21:54:36.850Z,67.47
2018-04-14T21:57:06.001Z,70.18
2018-04-14T21:59:35.195Z,70.35
2018-04-14T22:02:04.457Z,73.50
2018-04-14T22:07:09.273Z,69.70
2018-04-14T22:09:38.572Z,71.10
2018-04-14T22:12:07.929Z,69.12
2018-04-14T22:14:37.235Z,68.28
2018-04-14T22:17:06.502Z,69.90
2018-04-14T22:19:35.745Z,71.47
2018-04-14T22:22:04.990Z,70.18
2018-04-14T22:24:34.167Z,72.37
2018-04-14T22:27:03.391Z,71.90
2018-04-14T22:29:32.606Z,72.45
2018-04-14T22:32:01.807Z,70.55
2018-04-14T22:34:31.023Z,72.12
2018-04-14T22:37:00.224Z,71.30
2018-04-14T22:39:29.404Z,73.00
2018-04-14T22:41:58.591Z,71.18
2018-04-14T22:44:27.801Z,83.50
2018-04-14T22:46:56.984Z,72.65
2018-04-14T22:49:26.186Z,71.30
2018-04-14T22:51:55.428Z,71.25
2018-04-14T22:54:24.624Z,72.75
2018-04-14T22:56:53.797Z,73.95
2018-04-14T22:59:22.954Z,72.25
2018-04-14T23:01:52.144Z,70.65
2018-04-14T23:04:21.361Z,71.80
2018-04-14T23:06:50.531Z,71.47
2018-04-14T23:09:19.693Z,70.10
2018-04-14T23:11:48.860Z,70.72
2018-04-14T23:14:18.266Z,71.07
2018-04-14T23:16:47.468Z,73.18
2018-04-14T23:19:16.666Z,70.03
2018-04-14T23:21:45.842Z,72.37
2018-04-14T23:24:15.014Z,71.20
2018-04-14T23:26:44.202Z,71.75
2018-04-14T23:29:13.397Z,72.05
2018-04-14T23:31:42.604Z,71.57
2018-04-14T23:34:11.834Z,71.20
2018-04-14T23:36:41.064Z,72.32
2018-04-14T23:39:10.236Z,70.93
2018-04-14T23:41:39.426Z,71.95
2018-04-14T23:44:08.623Z,74.85
2018-04-14T23:46:37.817Z,71.15
2018-04-14T23:49:07.015Z,72.47
2018-04-14T23:51:36.218Z,73.15
2018-04-14T23:54:05.414Z,71.00
2018-04-14T23:56:34.576Z,72.78
2018-04-14T23:59:03.955Z,72.68
